createdAt,value
2022-10-17T00:01:08.489Z,98617.92
2022-10-17T00:03:38.003Z,98620.76
2022-10-17T00:06:08.644Z,98619.23
2022-10-17T00:08:38.241Z,98621.17
2022-10-17T00:11:09.434Z,98619.14
2022-10-17T00:13:37.349Z,98621.59
2022-10-17T00:16:06.149Z,98625.16
2022-10-17T00:18:34.037Z,98630.38
2022-10-17T00:21:01.926Z,98628.94
2022-10-17T00:23:30.575Z,98629.30
2022-10-17T00:26:00.613Z,98630.23
2022-10-17T00:28:28.797Z,98628.70
2022-10-17T00:30:58.733Z,98631.70
2022-10-17T00:33:27.741Z,98628.09
2022-10-17T00:36:17.896Z,98631.29
2022-10-17T00:38:47.825Z,98634.41
2022-10-17T00:41:19.075Z,98634.37
2022-10-17T00:44:01.588Z,98636.30
2022-10-17T00:46:35.009Z,98641.44
2022-10-17T00:49:07.623Z,98639.88
2022-10-17T00:51:45.365Z,98639.48
2022-10-17T00:54:16.260Z,98636.19
2022-10-17T00:56:46.976Z,98637.04
2022-10-17T00:59:17.158Z,98642.38
2022-10-17T01:01:52.697Z,98648.02
2022-10-17T01:04:20.975Z,98647.25
2022-10-17T01:06:48.711Z,98648.92
2022-10-17T01:09:16.617Z,98651.79
2022-10-17T01:11:49.870Z,98652.30
2022-10-17T01:14:45.807Z,98648.31
2022-10-17T01:17:46.621Z,98648.44
2022-10-17T01:20:45.462Z,98648.01
2022-10-17T01:23:36.596Z,98648.69
2022-10-17T01:26:13.332Z,98652.48
2022-10-17T01:29:02.580Z,98656.14
2022-10-17T01:31:47.778Z,98656.67
2022-10-17T01:34:21.294Z,98662.23
2022-10-17T01:36:59.084Z,98654.71
2022-10-17T01:39:50.409Z,98652.77
2022-10-17T01:42:18.351Z,98654.55
2022-10-17T01:45:12.636Z,98654.95
2022-10-17T01:47:42.782Z,98658.54
2022-10-17T01:50:17.722Z,98659.09
2022-10-17T01:52:55.617Z,98664.83
2022-10-17T01:55:30.827Z,98671.13
2022-10-17T01:58:13.824Z,98676.45
2022-10-17T02:00:44.063Z,98679.23
2022-10-17T02:03:17.820Z,98677.43
2022-10-17T02:05:46.680Z,98681.70
2022-10-17T02:08:24.451Z,98683.73
2022-10-17T02:10:58.386Z,98685.17
2022-10-17T02:13:40.307Z,98685.42
2022-10-17T02:16:26.443Z,98690.75
2022-10-17T02:19:02.075Z,98689.07
2022-10-17T02:21:32.808Z,98692.88
2022-10-17T02:24:26.639Z,98694.70
2022-10-17T02:27:10.655Z,98695.25
2022-10-17T02:29:52.185Z,98693.91
2022-10-17T02:32:27.526Z,98695.02
2022-10-17T02:34:58.735Z,98698.15
2022-10-17T02:37:30.355Z,98697.54
2022-10-17T02:40:00.968Z,98701.34
2022-10-17T02:42:31.175Z,98700.59
2022-10-17T02:45:01.996Z,98699.88
2022-10-17T02:47:34.615Z,98699.83
2022-10-17T02:50:02.541Z,98699.36
2022-10-17T02:52:30.758Z,98699.02
2022-10-17T02:55:05.137Z,98701.02
2022-10-17T02:57:45.174Z,98699.70
2022-10-17T03:00:15.690Z,98705.52
2022-10-17T03:02:46.368Z,98708.73
2022-10-17T03:05:21.143Z,98707.02
2022-10-17T03:07:49.234Z,98703.67
2022-10-17T03:10:17.644Z,98697.77
2022-10-17T03:12:45.726Z,98700.86
2022-10-17T03:15:13.890Z,98704.70
2022-10-17T03:17:41.820Z,98702.71
2022-10-17T03:20:10.118Z,98703.05
2022-10-17T03:22:38.209Z,98708.83
2022-10-17T03:25:06.179Z,98713.30
2022-10-17T03:27:33.949Z,98714.08
2022-10-17T03:30:01.875Z,98718.96
2022-10-17T03:32:29.745Z,98722.67
2022-10-17T03:34:57.563Z,98722.00
2022-10-17T03:37:25.859Z,98722.64
2022-10-17T03:39:53.789Z,98722.38
2022-10-17T03:42:21.574Z,98720.65
2022-10-17T03:44:49.416Z,98721.35
2022-10-17T03:47:17.288Z,98725.40
2022-10-17T03:49:45.108Z,98726.38
2022-10-17T03:52:13.516Z,98732.91
2022-10-17T03:54:41.392Z,98736.97
2022-10-17T03:57:09.178Z,98733.30
2022-10-17T03:59:37.122Z,98728.98
2022-10-17T04:02:04.893Z,98731.23
2022-10-17T04:04:32.756Z,98732.98
2022-10-17T04:07:00.725Z,98736.41
2022-10-17T04:09:28.691Z,98733.60
2022-10-17T04:11:56.486Z,98734.77
2022-10-17T04:14:24.260Z,98730.77
2022-10-17T04:16:53.565Z,98729.77
2022-10-17T04:19:21.404Z,98732.65
2022-10-17T04:21:49.164Z,98735.09
2022-10-17T04:24:17.133Z,98734.38
2022-10-17T04:26:44.996Z,98732.77
2022-10-17T04:29:12.823Z,98732.80
2022-10-17T04:31:40.782Z,98732.48
2022-10-17T04:34:08.696Z,98731.83
2022-10-17T04:36:36.475Z,98733.19
2022-10-17T04:39:05.926Z,98731.05
2022-10-17T04:41:33.898Z,98730.74
2022-10-17T04:44:01.615Z,98730.08
2022-10-17T04:46:29.520Z,98732.33
2022-10-17T04:48:57.395Z,98729.30
2022-10-17T04:51:26.604Z,98731.24
2022-10-17T04:53:55.067Z,98732.45
2022-10-17T04:56:24.686Z,98738.67
2022-10-17T04:58:52.808Z,98735.16
2022-10-17T05:01:22.554Z,98734.34
2022-10-17T05:03:50.558Z,98737.62
2022-10-17T05:06:23.973Z,98740.38
2022-10-17T05:08:51.952Z,98744.64
2022-10-17T05:11:25.612Z,98742.36
2022-10-17T05:14:02.160Z,98751.52
2022-10-17T05:16:30.941Z,98753.64
2022-10-17T05:18:59.083Z,98755.20
2022-10-17T05:21:28.972Z,98761.78
2022-10-17T05:23:57.302Z,98767.63
2022-10-17T05:26:25.883Z,98772.37
2022-10-17T05:28:55.024Z,98773.95
2022-10-17T05:31:23.168Z,98778.92
2022-10-17T05:33:51.072Z,98784.77
2022-10-17T05:36:19.093Z,98787.50
2022-10-17T05:38:51.452Z,98790.83
2022-10-17T05:41:20.511Z,98794.55
2022-10-17T05:43:50.425Z,98802.93
2022-10-17T05:46:18.195Z,98806.13
2022-10-17T05:48:45.983Z,98812.33
2022-10-17T05:51:13.739Z,98811.44
2022-10-17T05:53:42.243Z,98816.64
2022-10-17T05:56:12.452Z,98819.17
2022-10-17T05:58:50.408Z,98820.63
2022-10-17T06:01:19.763Z,98824.48
2022-10-17T06:03:47.729Z,98826.94
2022-10-17T06:06:16.766Z,98828.65
2022-10-17T06:08:45.108Z,98828.16
2022-10-17T06:11:13.276Z,98830.97
2022-10-17T06:13:41.761Z,98831.09
2022-10-17T06:16:09.601Z,98833.05
2022-10-17T06:18:37.391Z,98831.69
2022-10-17T06:21:07.820Z,98836.16
2022-10-17T06:23:35.755Z,98840.31
2022-10-17T06:26:05.715Z,98839.90
2022-10-17T06:28:34.753Z,98837.65
2022-10-17T06:31:11.719Z,98835.15
2022-10-17T06:33:40.053Z,98836.37
2022-10-17T06:36:12.378Z,98837.98
2022-10-17T06:38:40.801Z,98841.98
2022-10-17T06:41:13.747Z,98847.83
2022-10-17T06:43:45.684Z,98845.82
2022-10-17T06:46:15.918Z,98843.16
2022-10-17T06:48:44.962Z,98845.02
2022-10-17T06:51:13.235Z,98845.36
2022-10-17T06:53:41.092Z,98846.98
2022-10-17T06:56:10.445Z,98852.39
2022-10-17T06:58:40.428Z,98859.64
2022-10-17T07:01:11.586Z,98861.75
2022-10-17T07:03:41.024Z,98859.43
2022-10-17T07:06:10.822Z,98859.23
2022-10-17T07:08:43.640Z,98858.80
2022-10-17T07:11:17.216Z,98855.61
2022-10-17T07:13:45.243Z,98856.79
2022-10-17T07:16:14.080Z,98852.30
2022-10-17T07:18:42.571Z,98850.77
2022-10-17T07:21:10.633Z,98856.12
2022-10-17T07:23:38.709Z,98855.81
2022-10-17T07:26:10.990Z,98853.06
2022-10-17T07:28:41.007Z,98857.42
2022-10-17T07:31:16.244Z,98863.00
2022-10-17T07:36:18.756Z,98863.41
2022-10-17T07:38:46.607Z,98868.38
2022-10-17T07:41:17.924Z,98870.64
2022-10-17T07:43:49.261Z,98874.82
2022-10-17T07:46:17.721Z,98872.82
2022-10-17T07:48:45.505Z,98873.52
2022-10-17T07:51:13.292Z,98872.11
2022-10-17T07:53:46.356Z,98867.51
2022-10-17T07:56:17.012Z,98870.39
2022-10-17T07:58:45.004Z,98872.45
2022-10-17T08:01:15.609Z,98873.45
2022-10-17T08:03:45.440Z,98872.67
2022-10-17T08:06:14.776Z,98873.02
2022-10-17T08:08:43.072Z,98872.23
2022-10-17T08:11:12.677Z,98870.50
2022-10-17T08:13:41.529Z,98872.48
2022-10-17T08:16:12.322Z,98876.59
2022-10-17T08:18:41.968Z,98880.80
2022-10-17T08:21:11.067Z,98881.58
2022-10-17T08:23:38.997Z,98883.94
2022-10-17T08:26:10.479Z,98883.67
2022-10-17T08:28:39.800Z,98880.88
2022-10-17T08:31:10.353Z,98881.56
2022-10-17T08:33:38.344Z,98884.23
2022-10-17T08:36:07.303Z,98889.32
2022-10-17T08:38:36.913Z,98891.04
2022-10-17T08:41:14.428Z,98891.15
2022-10-17T08:43:42.111Z,98892.05
2022-10-17T08:46:10.285Z,98892.25
2022-10-17T08:48:45.604Z,98895.83
2022-10-17T08:51:35.954Z,98898.44
2022-10-17T08:54:15.071Z,98897.75
2022-10-17T08:56:49.615Z,98898.23
2022-10-17T08:59:21.597Z,98898.71
2022-10-17T09:02:31.776Z,98897.23
2022-10-17T09:05:26.537Z,98903.64
2022-10-17T09:08:28.915Z,98898.38
2022-10-17T09:11:18.206Z,98900.58
2022-10-17T09:14:10.553Z,98897.53
2022-10-17T09:16:57.194Z,98893.63
2022-10-17T09:19:36.858Z,98892.55
2022-10-17T09:22:12.864Z,98893.16
2022-10-17T09:24:45.420Z,98894.31
2022-10-17T09:27:27.560Z,98894.73
2022-10-17T09:30:26.826Z,98893.81
2022-10-17T09:33:10.850Z,98894.75
2022-10-17T09:35:44.334Z,98892.67
2022-10-17T09:38:18.157Z,98892.02
2022-10-17T09:40:57.114Z,98897.85
2022-10-17T09:43:25.584Z,98893.81
2022-10-17T09:46:11.245Z,98894.07
2022-10-17T09:48:46.929Z,98892.23
2022-10-17T09:51:25.658Z,98893.67
2022-10-17T09:53:59.813Z,98892.25
2022-10-17T09:56:27.633Z,98893.40
2022-10-17T09:58:59.069Z,98893.44
2022-10-17T10:01:29.876Z,98892.56
2022-10-17T10:04:16.108Z,98891.47
2022-10-17T10:07:05.819Z,98884.57
2022-10-17T10:09:39.371Z,98884.02
2022-10-17T10:12:26.925Z,98884.64
2022-10-17T10:14:55.837Z,98883.09
2022-10-17T10:17:42.531Z,98882.44
2022-10-17T10:20:33.109Z,98880.31
2022-10-17T10:23:13.892Z,98876.91
2022-10-17T10:26:03.329Z,98878.73
2022-10-17T10:28:34.107Z,98871.84
2022-10-17T10:31:08.149Z,98871.42
2022-10-17T10:33:41.955Z,98869.00
2022-10-17T10:36:09.944Z,98869.89
2022-10-17T10:38:41.007Z,98869.55
2022-10-17T10:41:11.618Z,98869.92
2022-10-17T10:43:46.570Z,98869.45
2022-10-17T10:46:28.812Z,98865.80
2022-10-17T10:49:00.322Z,98863.70
2022-10-17T10:51:38.025Z,98861.59
2022-10-17T10:54:10.279Z,98857.36
2022-10-17T10:56:43.899Z,98855.23
2022-10-17T10:59:21.161Z,98856.81
2022-10-17T11:01:56.851Z,98853.34
2022-10-17T11:04:51.192Z,98851.26
2022-10-17T11:07:23.900Z,98847.76
2022-10-17T11:10:08.107Z,98846.71
2022-10-17T11:12:48.653Z,98843.65
2022-10-17T11:15:25.413Z,98842.27
2022-10-17T11:18:02.932Z,98838.17
2022-10-17T11:20:38.521Z,98833.80
2022-10-17T11:23:28.056Z,98833.09
2022-10-17T11:26:01.592Z,98830.86
2022-10-17T11:28:29.726Z,98828.89
2022-10-17T11:31:07.980Z,98827.73
2022-10-17T11:33:54.804Z,98826.84
2022-10-17T11:36:28.510Z,98824.38
2022-10-17T11:39:08.969Z,98823.27
2022-10-17T11:41:48.892Z,98823.46
2022-10-17T11:44:36.353Z,98821.44
2022-10-17T11:47:52.055Z,98819.14
2022-10-17T11:53:28.679Z,98817.77
2022-10-17T11:55:58.904Z,98818.20
2022-10-17T11:59:15.592Z,98813.78
2022-10-17T12:02:01.853Z,98812.42
2022-10-17T12:04:49.669Z,98810.38
2022-10-17T12:07:22.484Z,98809.64
2022-10-17T12:10:00.750Z,98808.48
2022-10-17T12:12:32.176Z,98809.55
2022-10-17T12:15:26.293Z,98808.61
2022-10-17T12:17:55.528Z,98804.66
2022-10-17T12:20:28.880Z,98803.78
2022-10-17T12:23:11.968Z,98801.06
2022-10-17T12:26:04.729Z,98798.71
2022-10-17T12:28:48.282Z,98796.08
2022-10-17T12:31:15.985Z,98796.11
2022-10-17T12:33:46.888Z,98800.77
2022-10-17T12:36:27.037Z,98796.66
2022-10-17T12:39:03.720Z,98793.27
2022-10-17T12:41:40.751Z,98791.45
2022-10-17T12:44:14.737Z,98790.29
2022-10-17T12:46:52.171Z,98785.76
2022-10-17T12:49:38.967Z,98784.94
2022-10-17T12:52:36.774Z,98783.48
2022-10-17T12:55:14.191Z,98784.39
2022-10-17T12:57:49.461Z,98785.79
2022-10-17T13:00:43.852Z,98783.98
2022-10-17T13:03:24.150Z,98781.21
2022-10-17T13:05:55.665Z,98777.98
2022-10-17T13:08:28.827Z,98780.80
2022-10-17T13:10:57.456Z,98784.89
2022-10-17T13:13:37.483Z,98786.70
2022-10-17T13:16:05.476Z,98786.34
2022-10-17T13:18:36.065Z,98786.21
2022-10-17T13:21:06.016Z,98786.14
2022-10-17T13:23:38.294Z,98785.10
2022-10-17T13:26:26.689Z,98787.33
2022-10-17T13:29:15.677Z,98788.07
2022-10-17T13:31:44.884Z,98790.71
2022-10-17T13:34:24.628Z,98790.71
2022-10-17T13:36:58.065Z,98789.84
2022-10-17T13:39:52.529Z,98790.75
2022-10-17T13:42:38.519Z,98785.76
2022-10-17T13:45:18.955Z,98784.06
2022-10-17T13:47:47.404Z,98783.56
2022-10-17T13:50:44.599Z,98784.06
2022-10-17T13:53:17.395Z,98785.67
2022-10-17T13:56:26.475Z,98784.14
2022-10-17T13:58:51.741Z,98782.61
2022-10-17T14:01:21.653Z,98783.23
2022-10-17T14:03:57.068Z,98781.28
2022-10-17T14:06:31.289Z,98775.78
2022-10-17T14:09:02.739Z,98776.06
2022-10-17T14:11:41.014Z,98773.23
2022-10-17T14:14:22.272Z,98776.02
2022-10-17T14:16:50.244Z,98772.17
2022-10-17T14:19:30.420Z,98772.08
2022-10-17T14:22:21.399Z,98768.60
2022-10-17T14:24:50.716Z,98767.43
2022-10-17T14:27:36.187Z,98766.29
2022-10-17T14:30:51.671Z,98768.29
2022-10-17T14:33:30.527Z,98775.98
2022-10-17T14:36:00.812Z,98771.20
2022-10-17T14:38:30.263Z,98771.80
2022-10-17T14:41:30.542Z,98771.56
2022-10-17T14:44:16.129Z,98771.52
2022-10-17T14:46:50.477Z,98771.77
2022-10-17T14:49:52.163Z,98772.52
2022-10-17T14:52:19.963Z,98773.02
2022-10-17T14:54:49.699Z,98774.61
2022-10-17T14:57:40.899Z,98773.33
2022-10-17T15:00:14.150Z,98775.27
2022-10-17T15:02:42.524Z,98775.96
2022-10-17T15:05:13.283Z,98775.27
2022-10-17T15:07:42.612Z,98776.90
2022-10-17T15:10:32.943Z,98775.55
2022-10-17T15:13:27.598Z,98775.60
2022-10-17T15:15:52.239Z,98773.94
2022-10-17T15:18:20.377Z,98776.31
2022-10-17T15:20:52.672Z,98773.84
2022-10-17T15:23:28.791Z,98774.27
2022-10-17T15:25:56.575Z,98771.78
2022-10-17T15:28:24.419Z,98772.17
2022-10-17T15:30:52.240Z,98773.65
2022-10-17T15:33:20.200Z,98773.96
2022-10-17T15:35:48.143Z,98778.67
2022-10-17T15:38:18.159Z,98777.88
2022-10-17T15:40:49.178Z,98779.42
2022-10-17T15:43:19.845Z,98785.29
2022-10-17T15:45:48.705Z,98784.67
2022-10-17T15:48:24.588Z,98788.95
2022-10-17T15:50:52.578Z,98788.14
2022-10-17T15:53:20.304Z,98789.84
2022-10-17T15:55:51.101Z,98792.08
2022-10-17T15:58:19.849Z,98790.41
2022-10-17T16:00:48.463Z,98790.73
2022-10-17T16:03:16.507Z,98791.24
2022-10-17T16:05:44.266Z,98795.60
2022-10-17T16:08:12.071Z,98798.19
2022-10-17T16:10:40.926Z,98801.00
2022-10-17T16:13:21.142Z,98801.63
2022-10-17T16:15:49.351Z,98802.09
2022-10-17T16:18:17.339Z,98802.02
2022-10-17T16:20:45.231Z,98804.55
2022-10-17T16:23:14.094Z,98806.28
2022-10-17T16:25:42.148Z,98806.63
2022-10-17T16:28:11.967Z,98802.42
2022-10-17T16:30:43.105Z,98804.11
2022-10-17T16:33:11.808Z,98808.70
2022-10-17T16:35:39.766Z,98809.45
2022-10-17T16:38:08.145Z,98810.04
2022-10-17T16:40:38.558Z,98811.15
2022-10-17T16:43:06.982Z,98812.45
2022-10-17T16:45:36.317Z,98809.98
2022-10-17T16:48:04.225Z,98812.19
2022-10-17T16:50:35.474Z,98818.61
2022-10-17T16:53:04.018Z,98817.84
2022-10-17T16:55:31.920Z,98817.15
2022-10-17T16:58:00.223Z,98813.73
2022-10-17T17:00:28.306Z,98816.13
2022-10-17T17:02:56.139Z,98823.56
2022-10-17T17:05:24.006Z,98825.05
2022-10-17T17:07:51.742Z,98827.06
2022-10-17T17:10:19.466Z,98831.45
2022-10-17T17:12:47.345Z,98832.36
2022-10-17T17:15:15.242Z,98832.23
2022-10-17T17:17:50.525Z,98831.43
2022-10-17T17:20:23.698Z,98833.89
2022-10-17T17:22:52.512Z,98830.78
2022-10-17T17:25:22.039Z,98829.33
2022-10-17T17:27:49.946Z,98831.10
2022-10-17T17:30:18.046Z,98831.98
2022-10-17T17:32:45.855Z,98836.52
2022-10-17T17:35:13.697Z,98838.19
2022-10-17T17:37:41.453Z,98837.91
2022-10-17T17:40:10.166Z,98838.04
2022-10-17T17:42:38.052Z,98840.45
2022-10-17T17:45:06.473Z,98845.23
2022-10-17T17:47:34.304Z,98843.64
2022-10-17T17:50:03.425Z,98843.97
2022-10-17T17:52:31.655Z,98847.17
2022-10-17T17:54:59.661Z,98851.23
2022-10-17T17:57:29.515Z,98849.41
2022-10-17T17:59:57.239Z,98849.11
2022-10-17T18:02:25.032Z,98843.61
2022-10-17T18:04:52.966Z,98844.97
2022-10-17T18:07:20.716Z,98851.34
2022-10-17T18:09:49.293Z,98851.36
2022-10-17T18:12:17.403Z,98848.59
2022-10-17T18:14:45.319Z,98845.95
2022-10-17T18:17:13.205Z,98844.39
2022-10-17T18:19:41.026Z,98843.46
2022-10-17T18:22:09.490Z,98845.91
2022-10-17T18:24:37.297Z,98842.92
2022-10-17T18:27:05.164Z,98844.27
2022-10-17T18:29:33.465Z,98845.79
2022-10-17T18:32:01.376Z,98846.70
2022-10-17T18:34:29.343Z,98852.09
2022-10-17T18:36:57.773Z,98849.61
2022-10-17T18:39:25.876Z,98852.39
2022-10-17T18:41:53.693Z,98849.56
2022-10-17T18:44:22.021Z,98850.06
2022-10-17T18:46:50.022Z,98845.42
2022-10-17T18:49:20.175Z,98845.52
2022-10-17T18:51:48.118Z,98845.42
2022-10-17T18:54:20.738Z,98844.13
2022-10-17T18:56:53.613Z,98850.14
2022-10-17T18:59:22.224Z,98852.25
2022-10-17T19:01:50.162Z,98856.23
2022-10-17T19:04:18.172Z,98853.88
2022-10-17T19:06:46.128Z,98855.50
2022-10-17T19:09:14.825Z,98855.89
2022-10-17T19:11:43.183Z,98856.80
2022-10-17T19:14:13.579Z,98851.63
2022-10-17T19:16:46.094Z,98854.41
2022-10-17T19:19:15.104Z,98856.86
2022-10-17T19:21:44.200Z,98855.84
2022-10-17T19:24:16.716Z,98852.38
2022-10-17T19:26:47.381Z,98856.10
2022-10-17T19:29:17.058Z,98856.85
2022-10-17T19:31:45.652Z,98862.17
2022-10-17T19:34:14.595Z,98862.71
2022-10-17T19:36:42.954Z,98858.61
2022-10-17T19:39:14.025Z,98860.27
2022-10-17T19:41:44.677Z,98860.65
2022-10-17T19:44:13.708Z,98861.43
2022-10-17T19:46:41.609Z,98858.59
2022-10-17T19:49:11.237Z,98856.56
2022-10-17T19:51:39.757Z,98856.98
2022-10-17T19:54:07.532Z,98852.86
2022-10-17T19:56:38.926Z,98852.78
2022-10-17T19:59:08.450Z,98850.08
2022-10-17T20:01:40.425Z,98848.33
2022-10-17T20:04:10.786Z,98848.62
2022-10-17T20:06:39.910Z,98851.44
2022-10-17T20:09:11.033Z,98847.48
2022-10-17T20:11:41.902Z,98850.92
2022-10-17T20:14:09.892Z,98853.91
2022-10-17T20:16:37.779Z,98855.09
2022-10-17T20:19:09.175Z,98852.43
2022-10-17T20:21:39.647Z,98848.94
2022-10-17T20:24:11.176Z,98847.21
2022-10-17T20:26:40.053Z,98841.77
2022-10-17T20:29:13.490Z,98845.23
2022-10-17T20:31:43.627Z,98848.94
2022-10-17T20:34:14.212Z,98846.86
2022-10-17T20:36:42.705Z,98846.56
2022-10-17T20:39:13.049Z,98846.30
2022-10-17T20:41:41.752Z,98844.79
2022-10-17T20:44:10.587Z,98848.35
2022-10-17T20:46:45.332Z,98847.88
2022-10-17T20:49:20.864Z,98850.23
2022-10-17T20:51:48.660Z,98846.13
2022-10-17T20:54:16.417Z,98846.84
2022-10-17T20:56:44.188Z,98845.36
2022-10-17T20:59:16.180Z,98846.23
2022-10-17T21:01:45.442Z,98848.05
2022-10-17T21:04:44.204Z,98847.21
2022-10-17T21:07:01.792Z,98847.27
2022-10-17T21:09:29.728Z,98846.14
2022-10-17T21:11:57.611Z,98844.59
2022-10-17T21:14:25.680Z,98841.20
2022-10-17T21:16:53.664Z,98841.77
2022-10-17T21:19:21.929Z,98841.84
2022-10-17T21:21:50.546Z,98841.16
2022-10-17T21:24:20.679Z,98839.73
2022-10-17T21:26:55.424Z,98838.43
2022-10-17T21:29:23.944Z,98837.79
2022-10-17T21:31:52.842Z,98839.25
2022-10-17T21:34:23.965Z,98844.12
2022-10-17T21:36:52.290Z,98842.80
2022-10-17T21:39:21.936Z,98844.85
2022-10-17T21:41:49.877Z,98848.73
2022-10-17T21:44:20.587Z,98848.32
2022-10-17T21:46:48.949Z,98848.21
2022-10-17T21:49:19.468Z,98851.39
2022-10-17T21:51:48.563Z,98851.95
2022-10-17T21:54:18.426Z,98851.73
2022-10-17T21:56:46.737Z,98853.27
2022-10-17T21:59:14.808Z,98847.93
2022-10-17T22:01:45.031Z,98845.71
2022-10-17T22:04:17.791Z,98842.35
2022-10-17T22:06:47.810Z,98837.59
2022-10-17T22:09:19.613Z,98834.89
2022-10-17T22:11:50.150Z,98834.43
2022-10-17T22:14:20.057Z,98832.39
2022-10-17T22:16:49.088Z,98832.52
2022-10-17T22:19:20.348Z,98832.30
2022-10-17T22:21:48.829Z,98833.33
2022-10-17T22:24:19.012Z,98832.46
2022-10-17T22:26:47.367Z,98834.25
2022-10-17T22:29:15.204Z,98836.00
2022-10-17T22:31:43.360Z,98831.96
2022-10-17T22:34:13.824Z,98827.15
2022-10-17T22:36:42.195Z,98826.45
2022-10-17T22:39:11.088Z,98825.67
2022-10-17T22:41:38.880Z,98827.77
2022-10-17T22:44:06.844Z,98825.67
2022-10-17T22:46:34.900Z,98825.51
2022-10-17T22:49:03.295Z,98827.07
2022-10-17T22:51:32.270Z,98824.60
2022-10-17T22:54:00.022Z,98825.14
2022-10-17T22:56:27.893Z,98823.02
2022-10-17T22:58:55.658Z,98817.80
2022-10-17T23:01:25.491Z,98809.52
2022-10-17T23:03:53.474Z,98809.64
2022-10-17T23:06:21.676Z,98811.20
2022-10-17T23:08:49.890Z,98815.35
2022-10-17T23:11:17.896Z,98811.83
2022-10-17T23:13:45.656Z,98809.98
2022-10-17T23:16:13.836Z,98809.55
2022-10-17T23:18:41.850Z,98808.23
2022-10-17T23:21:10.039Z,98806.87
2022-10-17T23:23:38.771Z,98810.64
2022-10-17T23:26:09.632Z,98811.23
2022-10-17T23:28:38.026Z,98814.98
2022-10-17T23:31:24.065Z,98815.71
2022-10-17T23:33:51.838Z,98814.38
2022-10-17T23:36:20.598Z,98814.79
2022-10-17T23:38:49.118Z,98815.56
2022-10-17T23:41:17.379Z,98817.41
2022-10-17T23:43:45.373Z,98815.02
2022-10-17T23:46:13.720Z,98812.59
2022-10-17T23:48:41.834Z,98809.92
2022-10-17T23:51:10.772Z,98808.42
2022-10-17T23:53:39.409Z,98803.98
2022-10-17T23:56:08.251Z,98801.00
2022-10-17T23:58:36.758Z,98802.08
